ZKCBM NZAR-NZHN
Flight info
| Callsign | ZKCBM |
|---|---|
| Flight time | 0h 37m |
| Altitude | 6000 |
| Route | ORIDI |
| Aircraft | C172/L-SFG/C |
Departure
| Time | 2026-04-28 06:56 |
|---|---|
| Airport | Ardmore Airport (NZAR) |
Arrival
| Time | 2026-04-28 07:33 |
|---|---|
| Airport | Hamilton International Airport (NZHN) |
| Time | Latitude | Longitude | Altitude | Speed | Heading |
|---|---|---|---|---|---|
| 2026-04-28 06:48 | -37.03587 | 174.96992 | 119 ft | 0 kts | 226° |
| 2026-04-28 06:53 | -37.03593 | 174.96979 | 119 ft | 0 kts | 14° |
| 2026-04-28 06:53 | -37.03561 | 174.96941 | 119 ft | 7 kts | 343° |
| 2026-04-28 06:54 | -37.03554 | 174.96939 | 119 ft | 0 kts | 358° |
| 2026-04-28 06:54 | -37.03500 | 174.96924 | 119 ft | 9 kts | 45° |
| 2026-04-28 06:54 | -37.03458 | 174.96976 | 118 ft | 20 kts | 43° |
| 2026-04-28 06:55 | -37.03220 | 174.97278 | 131 ft | 72 kts | 44° |
| 2026-04-28 06:55 | -37.02851 | 174.97719 | 252 ft | 76 kts | 41° |
| 2026-04-28 06:55 | -37.02504 | 174.98137 | 444 ft | 67 kts | 44° |
| 2026-04-28 06:55 | -37.02237 | 174.98610 | 666 ft | 70 kts | 73° |
| 2026-04-28 06:56 | -37.02288 | 174.99223 | 894 ft | 75 kts | 119° |
| 2026-04-28 06:56 | -37.02665 | 174.99663 | 1138 ft | 76 kts | 151° |
| 2026-04-28 06:56 | -37.02869 | 174.99809 | 1249 ft | 76 kts | 153° |
| 2026-04-28 06:57 | -37.02948 | 174.99864 | 1262 ft | 82 kts | 153° |
| 2026-04-28 06:57 | -37.03574 | 175.00305 | 1110 ft | 119 kts | 150° |
| 2026-04-28 06:57 | -37.04194 | 175.00797 | 1533 ft | 91 kts | 144° |
| 2026-04-28 06:57 | -37.04644 | 175.01294 | 1832 ft | 87 kts | 136° |
| 2026-04-28 06:58 | -37.05051 | 175.01859 | 2073 ft | 88 kts | 131° |
| 2026-04-28 06:58 | -37.05429 | 175.02463 | 2316 ft | 89 kts | 128° |
| 2026-04-28 06:58 | -37.05791 | 175.03096 | 2558 ft | 89 kts | 127° |
| 2026-04-28 06:58 | -37.06137 | 175.03737 | 2794 ft | 89 kts | 126° |
| 2026-04-28 06:59 | -37.06478 | 175.04388 | 3026 ft | 89 kts | 125° |
| 2026-04-28 06:59 | -37.06817 | 175.05048 | 3256 ft | 90 kts | 125° |
| 2026-04-28 06:59 | -37.07151 | 175.05707 | 3480 ft | 90 kts | 125° |
| 2026-04-28 06:59 | -37.07486 | 175.06366 | 3700 ft | 90 kts | 128° |
| 2026-04-28 07:00 | -37.07974 | 175.06821 | 3917 ft | 88 kts | 157° |
| 2026-04-28 07:00 | -37.08540 | 175.07106 | 4132 ft | 87 kts | 163° |
| 2026-04-28 07:00 | -37.09122 | 175.07301 | 4342 ft | 86 kts | 176° |
| 2026-04-28 07:00 | -37.09734 | 175.07355 | 4554 ft | 86 kts | 179° |
| 2026-04-28 07:01 | -37.10341 | 175.07390 | 4760 ft | 86 kts | 179° |
| 2026-04-28 07:01 | -37.10945 | 175.07422 | 4961 ft | 86 kts | 179° |
| 2026-04-28 07:01 | -37.11553 | 175.07454 | 5160 ft | 86 kts | 179° |
| 2026-04-28 07:01 | -37.12167 | 175.07486 | 5357 ft | 87 kts | 179° |
| 2026-04-28 07:02 | -37.12768 | 175.07515 | 5546 ft | 87 kts | 179° |
| 2026-04-28 07:02 | -37.13373 | 175.07546 | 5734 ft | 87 kts | 179° |
| 2026-04-28 07:02 | -37.13981 | 175.07577 | 5919 ft | 87 kts | 179° |
| 2026-04-28 07:02 | -37.14623 | 175.07608 | 6002 ft | 98 kts | 179° |
| 2026-04-28 07:03 | -37.15354 | 175.07642 | 6009 ft | 107 kts | 179° |
| 2026-04-28 07:03 | -37.16102 | 175.07677 | 6007 ft | 108 kts | 179° |
| 2026-04-28 07:03 | -37.16859 | 175.07715 | 6006 ft | 108 kts | 179° |
| 2026-04-28 07:03 | -37.17606 | 175.07753 | 6006 ft | 108 kts | 179° |
| 2026-04-28 07:04 | -37.18359 | 175.07790 | 6006 ft | 107 kts | 179° |
| 2026-04-28 07:04 | -37.19110 | 175.07825 | 6006 ft | 107 kts | 179° |
| 2026-04-28 07:04 | -37.19860 | 175.07861 | 6006 ft | 107 kts | 179° |
| 2026-04-28 07:04 | -37.20616 | 175.07899 | 6006 ft | 107 kts | 179° |
| 2026-04-28 07:05 | -37.21370 | 175.07936 | 6006 ft | 107 kts | 179° |
| 2026-04-28 07:05 | -37.22123 | 175.07973 | 6006 ft | 107 kts | 179° |
| 2026-04-28 07:05 | -37.22863 | 175.08008 | 6006 ft | 107 kts | 179° |
| 2026-04-28 07:05 | -37.23613 | 175.08044 | 6006 ft | 107 kts | 179° |
| 2026-04-28 07:06 | -37.24359 | 175.08081 | 6006 ft | 107 kts | 179° |
| 2026-04-28 07:06 | -37.25120 | 175.08118 | 6006 ft | 107 kts | 179° |
| 2026-04-28 07:06 | -37.25883 | 175.08153 | 6006 ft | 107 kts | 179° |
| 2026-04-28 07:06 | -37.26646 | 175.08186 | 6006 ft | 107 kts | 179° |
| 2026-04-28 07:07 | -37.27408 | 175.08221 | 6006 ft | 107 kts | 179° |
| 2026-04-28 07:07 | -37.28184 | 175.08256 | 6006 ft | 107 kts | 179° |
| 2026-04-28 07:07 | -37.28949 | 175.08293 | 6006 ft | 107 kts | 179° |
| 2026-04-28 07:07 | -37.29702 | 175.08328 | 6006 ft | 107 kts | 179° |
| 2026-04-28 07:08 | -37.30467 | 175.08363 | 6006 ft | 107 kts | 179° |
| 2026-04-28 07:08 | -37.31227 | 175.08398 | 6006 ft | 107 kts | 179° |
| 2026-04-28 07:08 | -37.31993 | 175.08434 | 6006 ft | 107 kts | 179° |
| 2026-04-28 07:08 | -37.32752 | 175.08469 | 6006 ft | 107 kts | 179° |
| 2026-04-28 07:09 | -37.33517 | 175.08505 | 6006 ft | 107 kts | 179° |
| 2026-04-28 07:09 | -37.34283 | 175.08542 | 6006 ft | 107 kts | 179° |
| 2026-04-28 07:09 | -37.35043 | 175.08577 | 6006 ft | 107 kts | 179° |
| 2026-04-28 07:09 | -37.35801 | 175.08614 | 6006 ft | 107 kts | 179° |
| 2026-04-28 07:10 | -37.36566 | 175.08650 | 6006 ft | 107 kts | 179° |
| 2026-04-28 07:10 | -37.37327 | 175.08685 | 6006 ft | 107 kts | 179° |
| 2026-04-28 07:10 | -37.38088 | 175.08722 | 6006 ft | 107 kts | 179° |
| 2026-04-28 07:10 | -37.38849 | 175.08758 | 6006 ft | 107 kts | 179° |
| 2026-04-28 07:11 | -37.39611 | 175.08795 | 6006 ft | 107 kts | 179° |
| 2026-04-28 07:11 | -37.40365 | 175.08832 | 6006 ft | 107 kts | 179° |
| 2026-04-28 07:11 | -37.41126 | 175.08868 | 6006 ft | 107 kts | 179° |
| 2026-04-28 07:11 | -37.41882 | 175.08905 | 6006 ft | 107 kts | 179° |
| 2026-04-28 07:12 | -37.42646 | 175.08942 | 6006 ft | 107 kts | 179° |
| 2026-04-28 07:12 | -37.43413 | 175.08980 | 6006 ft | 107 kts | 179° |
| 2026-04-28 07:12 | -37.44170 | 175.09018 | 6006 ft | 107 kts | 179° |
| 2026-04-28 07:12 | -37.44930 | 175.09065 | 6004 ft | 107 kts | 173° |
| 2026-04-28 07:13 | -37.45655 | 175.09341 | 6005 ft | 107 kts | 161° |
| 2026-04-28 07:13 | -37.46357 | 175.09708 | 6005 ft | 107 kts | 158° |
| 2026-04-28 07:13 | -37.47054 | 175.10101 | 6006 ft | 107 kts | 157° |
| 2026-04-28 07:13 | -37.47740 | 175.10498 | 6006 ft | 107 kts | 157° |
| 2026-04-28 07:14 | -37.48422 | 175.10898 | 6006 ft | 107 kts | 157° |
| 2026-04-28 07:14 | -37.49103 | 175.11298 | 6005 ft | 107 kts | 157° |
| 2026-04-28 07:14 | -37.49781 | 175.11696 | 6005 ft | 107 kts | 157° |
| 2026-04-28 07:14 | -37.50460 | 175.12096 | 6005 ft | 107 kts | 157° |
| 2026-04-28 07:15 | -37.51146 | 175.12500 | 6005 ft | 107 kts | 157° |
| 2026-04-28 07:15 | -37.51819 | 175.12895 | 6005 ft | 107 kts | 157° |
| 2026-04-28 07:15 | -37.52497 | 175.13295 | 6005 ft | 107 kts | 157° |
| 2026-04-28 07:15 | -37.53173 | 175.13692 | 6005 ft | 107 kts | 157° |
| 2026-04-28 07:16 | -37.53847 | 175.14085 | 6005 ft | 107 kts | 157° |
| 2026-04-28 07:16 | -37.54529 | 175.14484 | 6006 ft | 107 kts | 157° |
| 2026-04-28 07:16 | -37.55210 | 175.14883 | 6005 ft | 107 kts | 157° |
| 2026-04-28 07:16 | -37.55884 | 175.15279 | 6005 ft | 107 kts | 157° |
| 2026-04-28 07:17 | -37.56560 | 175.15675 | 6005 ft | 107 kts | 157° |
| 2026-04-28 07:17 | -37.57235 | 175.16072 | 6005 ft | 107 kts | 157° |
| 2026-04-28 07:17 | -37.57911 | 175.16470 | 6005 ft | 107 kts | 157° |
| 2026-04-28 07:17 | -37.58585 | 175.16866 | 6005 ft | 106 kts | 157° |
| 2026-04-28 07:18 | -37.59262 | 175.17268 | 6005 ft | 106 kts | 157° |
| 2026-04-28 07:18 | -37.59932 | 175.17671 | 6005 ft | 106 kts | 157° |
| 2026-04-28 07:18 | -37.60609 | 175.18077 | 6005 ft | 106 kts | 157° |
| 2026-04-28 07:18 | -37.61275 | 175.18472 | 6005 ft | 106 kts | 157° |
| 2026-04-28 07:19 | -37.61959 | 175.18877 | 6005 ft | 106 kts | 157° |
| 2026-04-28 07:19 | -37.62632 | 175.19278 | 6005 ft | 106 kts | 157° |
| 2026-04-28 07:19 | -37.63302 | 175.19675 | 6005 ft | 106 kts | 157° |
| 2026-04-28 07:19 | -37.63963 | 175.20067 | 6004 ft | 105 kts | 157° |
| 2026-04-28 07:20 | -37.64523 | 175.20647 | 6002 ft | 107 kts | 122° |
| 2026-04-28 07:20 | -37.64693 | 175.21573 | 6007 ft | 111 kts | 101° |
| 2026-04-28 07:20 | -37.64777 | 175.22565 | 6006 ft | 113 kts | 100° |
| 2026-04-28 07:20 | -37.64875 | 175.23558 | 5905 ft | 113 kts | 102° |
| 2026-04-28 07:21 | -37.64999 | 175.24551 | 5656 ft | 118 kts | 104° |
| 2026-04-28 07:21 | -37.65155 | 175.25569 | 5447 ft | 116 kts | 105° |
| 2026-04-28 07:21 | -37.65299 | 175.26549 | 5318 ft | 112 kts | 100° |
| 2026-04-28 07:22 | -37.65265 | 175.28494 | 5056 ft | 111 kts | 88° |
| 2026-04-28 07:22 | -37.65177 | 175.29486 | 4858 ft | 115 kts | 86° |
| 2026-04-28 07:22 | -37.65083 | 175.30513 | 4653 ft | 114 kts | 87° |
| 2026-04-28 07:22 | -37.65008 | 175.31500 | 4452 ft | 113 kts | 89° |
| 2026-04-28 07:23 | -37.64958 | 175.32484 | 4251 ft | 112 kts | 90° |
| 2026-04-28 07:23 | -37.64934 | 175.33473 | 4049 ft | 111 kts | 92° |
| 2026-04-28 07:23 | -37.64939 | 175.34451 | 3825 ft | 112 kts | 95° |
| 2026-04-28 07:23 | -37.64973 | 175.35420 | 3626 ft | 110 kts | 96° |
| 2026-04-28 07:24 | -37.65036 | 175.36388 | 3441 ft | 107 kts | 99° |
| 2026-04-28 07:24 | -37.65121 | 175.37300 | 3315 ft | 104 kts | 101° |
| 2026-04-28 07:24 | -37.65232 | 175.38197 | 3196 ft | 102 kts | 103° |
| 2026-04-28 07:24 | -37.65369 | 175.39075 | 3095 ft | 97 kts | 108° |
| 2026-04-28 07:25 | -37.65743 | 175.39687 | 3076 ft | 85 kts | 154° |
| 2026-04-28 07:25 | -37.66311 | 175.39912 | 3014 ft | 85 kts | 174° |
| 2026-04-28 07:25 | -37.66942 | 175.39958 | 3013 ft | 98 kts | 184° |
| 2026-04-28 07:25 | -37.67631 | 175.39877 | 3007 ft | 99 kts | 192° |
| 2026-04-28 07:26 | -37.68304 | 175.39673 | 3006 ft | 99 kts | 196° |
| 2026-04-28 07:26 | -37.68974 | 175.39450 | 3005 ft | 99 kts | 197° |
| 2026-04-28 07:26 | -37.69657 | 175.39218 | 3007 ft | 103 kts | 197° |
| 2026-04-28 07:26 | -37.70356 | 175.38979 | 3006 ft | 105 kts | 197° |
| 2026-04-28 07:27 | -37.71075 | 175.38731 | 3001 ft | 106 kts | 197° |
| 2026-04-28 07:27 | -37.71786 | 175.38480 | 3004 ft | 104 kts | 197° |
| 2026-04-28 07:27 | -37.72327 | 175.38289 | 2953 ft | 108 kts | 197° |
| 2026-04-28 07:27 | -37.73074 | 175.38022 | 2831 ft | 113 kts | 198° |
| 2026-04-28 07:28 | -37.73837 | 175.37749 | 2704 ft | 113 kts | 197° |
| 2026-04-28 07:28 | -37.74601 | 175.37476 | 2556 ft | 112 kts | 198° |
| 2026-04-28 07:28 | -37.75346 | 175.37203 | 2402 ft | 109 kts | 198° |
| 2026-04-28 07:28 | -37.76074 | 175.36942 | 2250 ft | 107 kts | 197° |
| 2026-04-28 07:29 | -37.76806 | 175.36685 | 2096 ft | 106 kts | 197° |
| 2026-04-28 07:29 | -37.77517 | 175.36435 | 1946 ft | 106 kts | 197° |
| 2026-04-28 07:29 | -37.78243 | 175.36179 | 1793 ft | 106 kts | 198° |
| 2026-04-28 07:29 | -37.78957 | 175.35925 | 1642 ft | 106 kts | 197° |
| 2026-04-28 07:30 | -37.79657 | 175.35680 | 1535 ft | 103 kts | 197° |
| 2026-04-28 07:30 | -37.80350 | 175.35434 | 1419 ft | 104 kts | 197° |
| 2026-04-28 07:30 | -37.81062 | 175.35182 | 1244 ft | 105 kts | 197° |
| 2026-04-28 07:30 | -37.81758 | 175.34935 | 1067 ft | 102 kts | 197° |
| 2026-04-28 07:31 | -37.82444 | 175.34691 | 959 ft | 104 kts | 197° |
| 2026-04-28 07:31 | -37.83152 | 175.34442 | 843 ft | 99 kts | 197° |
| 2026-04-28 07:31 | -37.83802 | 175.34235 | 698 ft | 92 kts | 192° |
| 2026-04-28 07:31 | -37.84353 | 175.34073 | 515 ft | 74 kts | 197° |
| 2026-04-28 07:32 | -37.84802 | 175.33908 | 379 ft | 63 kts | 199° |
| 2026-04-28 07:32 | -37.85218 | 175.33751 | 275 ft | 61 kts | 200° |
| 2026-04-28 07:32 | -37.85630 | 175.33604 | 226 ft | 67 kts | 199° |
| 2026-04-28 07:32 | -37.86078 | 175.33440 | 182 ft | 61 kts | 198° |
| 2026-04-28 07:33 | -37.86413 | 175.33319 | 181 ft | 44 kts | 191° |
| 2026-04-28 07:33 | -37.86671 | 175.33223 | 178 ft | 32 kts | 202° |
| 2026-04-28 07:33 | -37.86686 | 175.33112 | 178 ft | 18 kts | 284° |
| 2026-04-28 07:33 | -37.86722 | 175.33017 | 178 ft | 14 kts | 189° |
| 2026-04-28 07:34 | -37.86802 | 175.32979 | 178 ft | 6 kts | 228° |
| 2026-04-28 07:34 | -37.86804 | 175.32974 | 178 ft | 0 kts | 294° |